sensor_id;sensor_type;location;lat;lon;timestamp;temperature;humidity
38359;DHT22;42072;48.044;14.416;2023-09-19T00:01:45;16.40;1.00
38359;DHT22;42072;48.044;14.416;2023-09-19T00:04:13;16.50;1.00
38359;DHT22;42072;48.044;14.416;2023-09-19T00:06:42;16.40;1.00
38359;DHT22;42072;48.044;14.416;2023-09-19T00:09:11;16.50;1.00
38359;DHT22;42072;48.044;14.416;2023-09-19T00:11:38;16.50;2.00
38359;DHT22;42072;48.044;14.416;2023-09-19T00:14:05;16.50;7.40
38359;DHT22;42072;48.044;14.416;2023-09-19T00:16:36;16.50;10.80
38359;DHT22;42072;48.044;14.416;2023-09-19T00:19:03;16.50;9.90
38359;DHT22;42072;48.044;14.416;2023-09-19T00:21:34;16.60;10.50
38359;DHT22;42072;48.044;14.416;2023-09-19T00:24:05;16.50;11.30
38359;DHT22;42072;48.044;14.416;2023-09-19T00:26:33;16.60;12.10
38359;DHT22;42072;48.044;14.416;2023-09-19T00:29:01;16.60;10.30
38359;DHT22;42072;48.044;14.416;2023-09-19T00:31:35;16.50;5.30
38359;DHT22;42072;48.044;14.416;2023-09-19T00:34:04;16.50;6.30
38359;DHT22;42072;48.044;14.416;2023-09-19T00:36:33;16.50;11.10
38359;DHT22;42072;48.044;14.416;2023-09-19T00:39:01;16.60;15.40
38359;DHT22;42072;48.044;14.416;2023-09-19T00:41:29;16.60;13.20
38359;DHT22;42072;48.044;14.416;2023-09-19T00:43:57;16.60;8.10
38359;DHT22;42072;48.044;14.416;2023-09-19T00:46:27;16.50;1.00
38359;DHT22;42072;48.044;14.416;2023-09-19T00:48:55;16.50;1.00
38359;DHT22;42072;48.044;14.416;2023-09-19T00:51:24;16.50;1.00
38359;DHT22;42072;48.044;14.416;2023-09-19T00:53:52;16.50;1.00
38359;DHT22;42072;48.044;14.416;2023-09-19T00:56:21;16.40;1.00
38359;DHT22;42072;48.044;14.416;2023-09-19T00:58:48;16.40;2.00
38359;DHT22;42072;48.044;14.416;2023-09-19T01:01:16;16.40;4.40
38359;DHT22;42072;48.044;14.416;2023-09-19T01:03:44;16.40;6.90
38359;DHT22;42072;48.044;14.416;2023-09-19T01:06:12;16.40;10.20
38359;DHT22;42072;48.044;14.416;2023-09-19T01:08:39;16.40;12.10
38359;DHT22;42072;48.044;14.416;2023-09-19T01:11:32;16.40;12.60
38359;DHT22;42072;48.044;14.416;2023-09-19T01:16:56;16.40;15.70
38359;DHT22;42072;48.044;14.416;2023-09-19T01:22:08;16.40;16.30
38359;DHT22;42072;48.044;14.416;2023-09-19T01:30:32;16.50;22.00
38359;DHT22;42072;48.044;14.416;2023-09-19T01:33:00;16.50;16.50
38359;DHT22;42072;48.044;14.416;2023-09-19T01:35:27;16.50;1.00
38359;DHT22;42072;48.044;14.416;2023-09-19T01:37:54;16.50;1.00
38359;DHT22;42072;48.044;14.416;2023-09-19T01:40:22;16.60;99.90
38359;DHT22;42072;48.044;14.416;2023-09-19T01:42:55;16.60;99.90
38359;DHT22;42072;48.044;14.416;2023-09-19T01:48:42;16.60;99.90
38359;DHT22;42072;48.044;14.416;2023-09-19T01:51:20;16.60;99.90
38359;DHT22;42072;48.044;14.416;2023-09-19T01:54:03;16.60;99.90
38359;DHT22;42072;48.044;14.416;2023-09-19T01:59:21;16.40;99.90
38359;DHT22;42072;48.044;14.416;2023-09-19T02:01:52;16.40;99.90
38359;DHT22;42072;48.044;14.416;2023-09-19T02:04:21;16.40;99.90
38359;DHT22;42072;48.044;14.416;2023-09-19T02:06:48;16.40;99.90
38359;DHT22;42072;48.044;14.416;2023-09-19T02:09:15;16.30;99.90
38359;DHT22;42072;48.044;14.416;2023-09-19T02:11:43;16.40;99.90
38359;DHT22;42072;48.044;14.416;2023-09-19T02:14:10;16.40;99.90
38359;DHT22;42072;48.044;14.416;2023-09-19T02:16:38;16.30;99.90
38359;DHT22;42072;48.044;14.416;2023-09-19T02:19:06;16.30;99.90
38359;DHT22;42072;48.044;14.416;2023-09-19T02:21:33;16.30;99.90
38359;DHT22;42072;48.044;14.416;2023-09-19T02:24:00;16.30;99.90
38359;DHT22;42072;48.044;14.416;2023-09-19T02:26:27;16.20;99.90
38359;DHT22;42072;48.044;14.416;2023-09-19T02:28:55;16.20;99.90
38359;DHT22;42072;48.044;14.416;2023-09-19T02:31:22;16.20;99.90
38359;DHT22;42072;48.044;14.416;2023-09-19T02:33:49;16.10;99.90
38359;DHT22;42072;48.044;14.416;2023-09-19T02:36:16;16.10;99.90
38359;DHT22;42072;48.044;14.416;2023-09-19T02:38:44;16.00;99.90
38359;DHT22;42072;48.044;14.416;2023-09-19T02:41:11;16.10;99.90
38359;DHT22;42072;48.044;14.416;2023-09-19T02:43:39;16.10;99.90
38359;DHT22;42072;48.044;14.416;2023-09-19T02:46:06;16.10;99.90
38359;DHT22;42072;48.044;14.416;2023-09-19T02:48:34;16.00;99.90
38359;DHT22;42072;48.044;14.416;2023-09-19T02:51:03;16.00;99.90
38359;DHT22;42072;48.044;14.416;2023-09-19T02:53:30;16.00;99.90
38359;DHT22;42072;48.044;14.416;2023-09-19T02:55:59;15.90;99.90
38359;DHT22;42072;48.044;14.416;2023-09-19T02:58:26;15.90;99.90
38359;DHT22;42072;48.044;14.416;2023-09-19T03:00:55;15.80;99.90
38359;DHT22;42072;48.044;14.416;2023-09-19T03:03:22;15.80;99.90
38359;DHT22;42072;48.044;14.416;2023-09-19T03:05:50;15.80;99.90
38359;DHT22;42072;48.044;14.416;2023-09-19T03:08:21;15.80;99.90
38359;DHT22;42072;48.044;14.416;2023-09-19T03:10:48;15.70;99.90
38359;DHT22;42072;48.044;14.416;2023-09-19T03:13:16;15.70;99.90
38359;DHT22;42072;48.044;14.416;2023-09-19T03:15:44;15.70;1.00
38359;DHT22;42072;48.044;14.416;2023-09-19T03:18:14;15.60;1.00
38359;DHT22;42072;48.044;14.416;2023-09-19T03:20:42;15.60;1.00
38359;DHT22;42072;48.044;14.416;2023-09-19T03:23:09;15.50;1.00
38359;DHT22;42072;48.044;14.416;2023-09-19T03:25:37;15.50;1.00
38359;DHT22;42072;48.044;14.416;2023-09-19T03:28:04;15.50;1.00
38359;DHT22;42072;48.044;14.416;2023-09-19T03:30:32;15.40;1.00
38359;DHT22;42072;48.044;14.416;2023-09-19T03:33:00;15.40;1.00
38359;DHT22;42072;48.044;14.416;2023-09-19T03:35:27;15.40;1.00
38359;DHT22;42072;48.044;14.416;2023-09-19T03:37:55;15.30;1.00
38359;DHT22;42072;48.044;14.416;2023-09-19T03:40:22;15.30;1.00
38359;DHT22;42072;48.044;14.416;2023-09-19T03:42:50;15.30;1.00
38359;DHT22;42072;48.044;14.416;2023-09-19T03:45:17;15.30;1.00
38359;DHT22;42072;48.044;14.416;2023-09-19T03:47:45;15.20;1.00
38359;DHT22;42072;48.044;14.416;2023-09-19T03:50:15;15.20;1.00
38359;DHT22;42072;48.044;14.416;2023-09-19T03:52:45;15.20;1.00
38359;DHT22;42072;48.044;14.416;2023-09-19T03:55:12;15.30;4.00
38359;DHT22;42072;48.044;14.416;2023-09-19T03:57:39;15.30;8.20
38359;DHT22;42072;48.044;14.416;2023-09-19T04:00:07;15.30;11.80
38359;DHT22;42072;48.044;14.416;2023-09-19T04:02:39;15.20;15.70
38359;DHT22;42072;48.044;14.416;2023-09-19T04:05:08;15.30;23.00
38359;DHT22;42072;48.044;14.416;2023-09-19T04:07:36;15.30;26.30
38359;DHT22;42072;48.044;14.416;2023-09-19T04:10:03;15.30;28.90
38359;DHT22;42072;48.044;14.416;2023-09-19T04:12:31;15.30;27.60
38359;DHT22;42072;48.044;14.416;2023-09-19T04:14:59;15.30;25.90
38359;DHT22;42072;48.044;14.416;2023-09-19T04:17:26;15.20;26.00
38359;DHT22;42072;48.044;14.416;2023-09-19T04:19:54;15.30;28.10
38359;DHT22;42072;48.044;14.416;2023-09-19T04:22:21;15.30;28.80
38359;DHT22;42072;48.044;14.416;2023-09-19T04:24:49;15.30;33.10
38359;DHT22;42072;48.044;14.416;2023-09-19T04:27:16;15.30;33.30
38359;DHT22;42072;48.044;14.416;2023-09-19T04:29:44;15.30;32.90
38359;DHT22;42072;48.044;14.416;2023-09-19T04:32:11;15.30;30.70
38359;DHT22;42072;48.044;14.416;2023-09-19T04:34:40;15.30;29.40
38359;DHT22;42072;48.044;14.416;2023-09-19T04:37:07;15.30;28.30
38359;DHT22;42072;48.044;14.416;2023-09-19T04:39:35;15.30;27.00
38359;DHT22;42072;48.044;14.416;2023-09-19T04:42:02;15.30;25.90
38359;DHT22;42072;48.044;14.416;2023-09-19T04:44:30;15.30;25.50
38359;DHT22;42072;48.044;14.416;2023-09-19T04:46:58;15.30;24.50
38359;DHT22;42072;48.044;14.416;2023-09-19T04:49:26;15.30;21.20
38359;DHT22;42072;48.044;14.416;2023-09-19T04:51:53;15.40;20.70
38359;DHT22;42072;48.044;14.416;2023-09-19T04:54:22;15.40;19.10
38359;DHT22;42072;48.044;14.416;2023-09-19T04:56:50;15.30;18.70
38359;DHT22;42072;48.044;14.416;2023-09-19T04:59:17;15.30;16.10
38359;DHT22;42072;48.044;14.416;2023-09-19T05:01:44;15.30;14.90
38359;DHT22;42072;48.044;14.416;2023-09-19T05:04:11;15.30;15.20
38359;DHT22;42072;48.044;14.416;2023-09-19T05:06:39;15.30;16.10
38359;DHT22;42072;48.044;14.416;2023-09-19T05:09:06;15.30;13.20
38359;DHT22;42072;48.044;14.416;2023-09-19T05:11:33;15.40;14.10
38359;DHT22;42072;48.044;14.416;2023-09-19T05:14:00;15.50;15.50
38359;DHT22;42072;48.044;14.416;2023-09-19T05:16:30;15.50;14.60
38359;DHT22;42072;48.044;14.416;2023-09-19T05:19:01;15.50;11.70
38359;DHT22;42072;48.044;14.416;2023-09-19T05:21:30;15.60;7.00
38359;DHT22;42072;48.044;14.416;2023-09-19T05:23:58;15.60;1.90
38359;DHT22;42072;48.044;14.416;2023-09-19T05:26:25;15.70;1.00
38359;DHT22;42072;48.044;14.416;2023-09-19T05:28:52;15.70;1.00
38359;DHT22;42072;48.044;14.416;2023-09-19T05:31:20;15.80;1.00
38359;DHT22;42072;48.044;14.416;2023-09-19T05:33:47;15.80;1.00
38359;DHT22;42072;48.044;14.416;2023-09-19T05:36:15;15.90;1.00
38359;DHT22;42072;48.044;14.416;2023-09-19T05:38:43;16.00;1.00
38359;DHT22;42072;48.044;14.416;2023-09-19T05:41:11;16.00;1.00
38359;DHT22;42072;48.044;14.416;2023-09-19T05:43:41;16.00;1.00
38359;DHT22;42072;48.044;14.416;2023-09-19T05:46:09;16.20;1.00
38359;DHT22;42072;48.044;14.416;2023-09-19T05:48:36;16.20;1.00
38359;DHT22;42072;48.044;14.416;2023-09-19T05:51:07;16.30;1.00
38359;DHT22;42072;48.044;14.416;2023-09-19T05:53:34;16.40;99.90
38359;DHT22;42072;48.044;14.416;2023-09-19T05:56:01;16.40;99.90
38359;DHT22;42072;48.044;14.416;2023-09-19T05:58:28;16.40;99.90
38359;DHT22;42072;48.044;14.416;2023-09-19T06:00:56;16.40;99.90
38359;DHT22;42072;48.044;14.416;2023-09-19T06:03:24;16.30;99.90
38359;DHT22;42072;48.044;14.416;2023-09-19T06:05:52;16.30;99.90
38359;DHT22;42072;48.044;14.416;2023-09-19T06:08:24;16.30;99.90
38359;DHT22;42072;48.044;14.416;2023-09-19T06:10:53;16.30;99.90
38359;DHT22;42072;48.044;14.416;2023-09-19T06:13:21;16.30;99.90
38359;DHT22;42072;48.044;14.416;2023-09-19T06:15:48;16.30;99.90
38359;DHT22;42072;48.044;14.416;2023-09-19T06:18:16;16.30;99.90
38359;DHT22;42072;48.044;14.416;2023-09-19T06:20:47;16.40;99.90
38359;DHT22;42072;48.044;14.416;2023-09-19T06:23:15;16.40;99.90
38359;DHT22;42072;48.044;14.416;2023-09-19T06:25:43;16.50;99.90
38359;DHT22;42072;48.044;14.416;2023-09-19T06:28:10;16.70;99.90
38359;DHT22;42072;48.044;14.416;2023-09-19T06:30:41;16.80;99.90
38359;DHT22;42072;48.044;14.416;2023-09-19T06:33:09;17.00;99.90
38359;DHT22;42072;48.044;14.416;2023-09-19T06:35:38;17.20;99.90
38359;DHT22;42072;48.044;14.416;2023-09-19T06:38:06;17.40;99.90
38359;DHT22;42072;48.044;14.416;2023-09-19T06:40:34;17.60;99.90
38359;DHT22;42072;48.044;14.416;2023-09-19T06:43:02;17.70;91.60
38359;DHT22;42072;48.044;14.416;2023-09-19T06:45:30;17.80;32.50
38359;DHT22;42072;48.044;14.416;2023-09-19T06:47:59;17.90;11.30
38359;DHT22;42072;48.044;14.416;2023-09-19T06:50:27;17.90;1.00
38359;DHT22;42072;48.044;14.416;2023-09-19T06:52:55;17.90;1.00
38359;DHT22;42072;48.044;14.416;2023-09-19T06:55:26;17.90;1.00
38359;DHT22;42072;48.044;14.416;2023-09-19T06:57:59;17.80;1.00
38359;DHT22;42072;48.044;14.416;2023-09-19T07:00:27;17.80;1.00
38359;DHT22;42072;48.044;14.416;2023-09-19T07:02:59;17.80;1.00
38359;DHT22;42072;48.044;14.416;2023-09-19T07:05:32;17.90;1.00
38359;DHT22;42072;48.044;14.416;2023-09-19T07:08:00;18.10;1.00
38359;DHT22;42072;48.044;14.416;2023-09-19T07:10:30;18.30;1.00
38359;DHT22;42072;48.044;14.416;2023-09-19T07:13:07;18.60;1.00
38359;DHT22;42072;48.044;14.416;2023-09-19T07:15:38;18.90;1.00
38359;DHT22;42072;48.044;14.416;2023-09-19T07:18:14;19.30;1.00
38359;DHT22;42072;48.044;14.416;2023-09-19T07:20:43;19.70;99.90
38359;DHT22;42072;48.044;14.416;2023-09-19T07:23:18;20.10;99.90
38359;DHT22;42072;48.044;14.416;2023-09-19T07:25:45;20.20;99.90
38359;DHT22;42072;48.044;14.416;2023-09-19T07:28:13;20.20;99.90
38359;DHT22;42072;48.044;14.416;2023-09-19T07:30:40;20.00;99.90
38359;DHT22;42072;48.044;14.416;2023-09-19T07:33:11;19.80;99.90
38359;DHT22;42072;48.044;14.416;2023-09-19T07:35:39;19.60;99.90
38359;DHT22;42072;48.044;14.416;2023-09-19T07:38:08;19.50;99.90
38359;DHT22;42072;48.044;14.416;2023-09-19T07:40:39;19.60;99.90
38359;DHT22;42072;48.044;14.416;2023-09-19T07:43:06;19.80;99.90
38359;DHT22;42072;48.044;14.416;2023-09-19T07:45:34;19.90;99.90
38359;DHT22;42072;48.044;14.416;2023-09-19T07:48:01;20.00;99.90
38359;DHT22;42072;48.044;14.416;2023-09-19T07:50:33;20.20;99.90
38359;DHT22;42072;48.044;14.416;2023-09-19T07:53:00;20.30;99.90
38359;DHT22;42072;48.044;14.416;2023-09-19T07:55:27;20.40;99.90
38359;DHT22;42072;48.044;14.416;2023-09-19T07:57:54;20.40;99.90
38359;DHT22;42072;48.044;14.416;2023-09-19T08:00:22;20.40;99.90
38359;DHT22;42072;48.044;14.416;2023-09-19T08:02:49;20.40;99.90
38359;DHT22;42072;48.044;14.416;2023-09-19T08:05:27;20.30;99.90
38359;DHT22;42072;48.044;14.416;2023-09-19T08:07:54;20.20;99.90
38359;DHT22;42072;48.044;14.416;2023-09-19T08:10:23;20.30;99.90
38359;DHT22;42072;48.044;14.416;2023-09-19T08:12:54;20.40;99.90
38359;DHT22;42072;48.044;14.416;2023-09-19T08:15:24;20.50;99.90
38359;DHT22;42072;48.044;14.416;2023-09-19T08:17:52;20.40;99.90
38359;DHT22;42072;48.044;14.416;2023-09-19T08:20:20;20.10;99.90
38359;DHT22;42072;48.044;14.416;2023-09-19T08:22:51;19.90;99.90
38359;DHT22;42072;48.044;14.416;2023-09-19T08:25:22;19.80;99.90
38359;DHT22;42072;48.044;14.416;2023-09-19T08:27:50;19.80;99.90
38359;DHT22;42072;48.044;14.416;2023-09-19T08:30:19;19.90;99.90
38359;DHT22;42072;48.044;14.416;2023-09-19T08:32:56;19.80;99.90
38359;DHT22;42072;48.044;14.416;2023-09-19T08:35:26;19.70;99.90
38359;DHT22;42072;48.044;14.416;2023-09-19T08:37:53;19.80;99.90
38359;DHT22;42072;48.044;14.416;2023-09-19T08:40:22;20.00;99.90
38359;DHT22;42072;48.044;14.416;2023-09-19T08:42:54;20.30;99.90
38359;DHT22;42072;48.044;14.416;2023-09-19T08:45:25;20.50;99.90
38359;DHT22;42072;48.044;14.416;2023-09-19T08:48:22;20.50;99.90
38359;DHT22;42072;48.044;14.416;2023-09-19T08:50:55;20.60;99.90
38359;DHT22;42072;48.044;14.416;2023-09-19T08:56:14;21.00;92.20
38359;DHT22;42072;48.044;14.416;2023-09-19T09:01:29;20.80;96.50
38359;DHT22;42072;48.044;14.416;2023-09-19T09:03:57;20.60;99.90
38359;DHT22;42072;48.044;14.416;2023-09-19T09:06:26;20.40;99.90
38359;DHT22;42072;48.044;14.416;2023-09-19T09:08:55;20.30;99.90
38359;DHT22;42072;48.044;14.416;2023-09-19T09:11:22;20.20;99.90
38359;DHT22;42072;48.044;14.416;2023-09-19T09:13:55;20.30;99.90
38359;DHT22;42072;48.044;14.416;2023-09-19T09:16:23;20.50;99.90
38359;DHT22;42072;48.044;14.416;2023-09-19T09:18:53;20.70;99.90
38359;DHT22;42072;48.044;14.416;2023-09-19T09:21:22;20.70;99.90
38359;DHT22;42072;48.044;14.416;2023-09-19T09:23:52;20.60;99.90
38359;DHT22;42072;48.044;14.416;2023-09-19T09:29:06;20.80;99.90
38359;DHT22;42072;48.044;14.416;2023-09-19T09:31:33;20.80;99.90
38359;DHT22;42072;48.044;14.416;2023-09-19T09:34:01;20.80;99.90
38359;DHT22;42072;48.044;14.416;2023-09-19T09:36:37;20.70;99.90
38359;DHT22;42072;48.044;14.416;2023-09-19T09:39:05;20.50;99.90
38359;DHT22;42072;48.044;14.416;2023-09-19T09:41:53;20.50;99.90
38359;DHT22;42072;48.044;14.416;2023-09-19T09:44:20;20.70;99.90
38359;DHT22;42072;48.044;14.416;2023-09-19T09:46:48;21.00;99.90
38359;DHT22;42072;48.044;14.416;2023-09-19T09:49:25;21.50;97.60
38359;DHT22;42072;48.044;14.416;2023-09-19T09:52:08;22.00;60.70
38359;DHT22;42072;48.044;14.416;2023-09-19T09:55:00;22.30;25.70
38359;DHT22;42072;48.044;14.416;2023-09-19T09:57:35;22.60;14.60
38359;DHT22;42072;48.044;14.416;2023-09-19T10:00:03;22.90;1.00
38359;DHT22;42072;48.044;14.416;2023-09-19T10:02:39;22.90;1.00
38359;DHT22;42072;48.044;14.416;2023-09-19T10:05:17;22.80;1.00
38359;DHT22;42072;48.044;14.416;2023-09-19T10:07:49;22.50;1.00
38359;DHT22;42072;48.044;14.416;2023-09-19T10:13:12;21.80;21.70
38359;DHT22;42072;48.044;14.416;2023-09-19T10:15:43;21.50;26.10
38359;DHT22;42072;48.044;14.416;2023-09-19T10:18:21;21.40;57.40
38359;DHT22;42072;48.044;14.416;2023-09-19T10:20:49;21.10;75.00
38359;DHT22;42072;48.044;14.416;2023-09-19T10:23:19;21.00;88.40
38359;DHT22;42072;48.044;14.416;2023-09-19T10:25:51;20.90;99.90
38359;DHT22;42072;48.044;14.416;2023-09-19T10:28:20;20.90;96.70
38359;DHT22;42072;48.044;14.416;2023-09-19T10:30:52;20.90;96.70
38359;DHT22;42072;48.044;14.416;2023-09-19T10:33:22;21.10;99.90
38359;DHT22;42072;48.044;14.416;2023-09-19T10:35:53;21.40;99.90
38359;DHT22;42072;48.044;14.416;2023-09-19T10:38:24;21.60;98.70
38359;DHT22;42072;48.044;14.416;2023-09-19T10:40:54;21.70;99.90
38359;DHT22;42072;48.044;14.416;2023-09-19T10:43:26;21.50;96.20
38359;DHT22;42072;48.044;14.416;2023-09-19T10:46:07;21.10;99.90
38359;DHT22;42072;48.044;14.416;2023-09-19T10:48:38;20.90;99.90
38359;DHT22;42072;48.044;14.416;2023-09-19T10:51:16;20.80;99.90
38359;DHT22;42072;48.044;14.416;2023-09-19T10:53:59;20.60;99.90
38359;DHT22;42072;48.044;14.416;2023-09-19T10:56:37;20.40;99.90
38359;DHT22;42072;48.044;14.416;2023-09-19T10:59:10;20.30;99.90
38359;DHT22;42072;48.044;14.416;2023-09-19T11:01:46;20.30;99.90
38359;DHT22;42072;48.044;14.416;2023-09-19T11:04:41;20.20;99.90
38359;DHT22;42072;48.044;14.416;2023-09-19T11:07:13;20.10;99.90
38359;DHT22;42072;48.044;14.416;2023-09-19T11:09:54;19.90;99.90
38359;DHT22;42072;48.044;14.416;2023-09-19T11:14:59;20.10;99.90
38359;DHT22;42072;48.044;14.416;2023-09-19T11:17:39;20.20;99.90
38359;DHT22;42072;48.044;14.416;2023-09-19T11:30:36;21.90;99.90
38359;DHT22;42072;48.044;14.416;2023-09-19T11:36:15;22.10;97.70
38359;DHT22;42072;48.044;14.416;2023-09-19T11:46:33;22.00;64.80
38359;DHT22;42072;48.044;14.416;2023-09-19T11:49:08;22.00;88.50
38359;DHT22;42072;48.044;14.416;2023-09-19T11:51:43;22.00;99.90
38359;DHT22;42072;48.044;14.416;2023-09-19T11:54:13;22.00;99.90
38359;DHT22;42072;48.044;14.416;2023-09-19T11:56:50;22.00;99.90
38359;DHT22;42072;48.044;14.416;2023-09-19T11:59:22;21.80;99.90
38359;DHT22;42072;48.044;14.416;2023-09-19T12:01:57;21.70;99.90
38359;DHT22;42072;48.044;14.416;2023-09-19T12:04:36;21.60;99.90
38359;DHT22;42072;48.044;14.416;2023-09-19T12:07:11;21.50;99.90
38359;DHT22;42072;48.044;14.416;2023-09-19T12:09:47;21.10;99.90
38359;DHT22;42072;48.044;14.416;2023-09-19T12:12:26;20.90;99.90
38359;DHT22;42072;48.044;14.416;2023-09-19T12:15:03;20.80;99.90
38359;DHT22;42072;48.044;14.416;2023-09-19T12:17:41;20.90;99.90
38359;DHT22;42072;48.044;14.416;2023-09-19T12:20:11;20.80;99.90
38359;DHT22;42072;48.044;14.416;2023-09-19T12:22:41;20.80;99.90
38359;DHT22;42072;48.044;14.416;2023-09-19T12:25:10;20.90;99.90
38359;DHT22;42072;48.044;14.416;2023-09-19T12:27:42;20.70;99.90
38359;DHT22;42072;48.044;14.416;2023-09-19T12:30:11;20.50;99.90
38359;DHT22;42072;48.044;14.416;2023-09-19T12:32:53;20.40;99.90
38359;DHT22;42072;48.044;14.416;2023-09-19T12:35:31;20.50;99.90
38359;DHT22;42072;48.044;14.416;2023-09-19T12:38:03;20.70;99.90
38359;DHT22;42072;48.044;14.416;2023-09-19T12:40:31;21.00;99.90
38359;DHT22;42072;48.044;14.416;2023-09-19T12:43:01;21.30;99.90
38359;DHT22;42072;48.044;14.416;2023-09-19T12:45:32;21.50;99.90
38359;DHT22;42072;48.044;14.416;2023-09-19T12:48:25;21.70;99.90
38359;DHT22;42072;48.044;14.416;2023-09-19T12:51:00;21.80;99.90
38359;DHT22;42072;48.044;14.416;2023-09-19T12:53:38;21.90;99.90
38359;DHT22;42072;48.044;14.416;2023-09-19T12:56:12;22.30;99.90
38359;DHT22;42072;48.044;14.416;2023-09-19T12:58:53;22.50;99.90
38359;DHT22;42072;48.044;14.416;2023-09-19T13:01:22;22.80;99.90
38359;DHT22;42072;48.044;14.416;2023-09-19T13:04:18;23.00;99.90
38359;DHT22;42072;48.044;14.416;2023-09-19T13:06:48;23.00;99.90
38359;DHT22;42072;48.044;14.416;2023-09-19T13:09:21;22.90;99.90
38359;DHT22;42072;48.044;14.416;2023-09-19T13:11:49;22.50;99.90
38359;DHT22;42072;48.044;14.416;2023-09-19T13:14:22;22.50;99.90
38359;DHT22;42072;48.044;14.416;2023-09-19T13:17:03;22.30;99.90
38359;DHT22;42072;48.044;14.416;2023-09-19T13:19:36;22.00;99.90
38359;DHT22;42072;48.044;14.416;2023-09-19T13:22:03;21.70;99.90
38359;DHT22;42072;48.044;14.416;2023-09-19T13:24:31;21.50;99.90
38359;DHT22;42072;48.044;14.416;2023-09-19T13:27:00;21.20;99.90
38359;DHT22;42072;48.044;14.416;2023-09-19T13:29:28;21.10;99.90
38359;DHT22;42072;48.044;14.416;2023-09-19T13:31:56;21.30;99.90
38359;DHT22;42072;48.044;14.416;2023-09-19T13:34:23;21.40;99.90
38359;DHT22;42072;48.044;14.416;2023-09-19T13:36:51;21.50;99.90
38359;DHT22;42072;48.044;14.416;2023-09-19T13:39:19;21.60;99.90
38359;DHT22;42072;48.044;14.416;2023-09-19T13:41:47;21.60;99.90
38359;DHT22;42072;48.044;14.416;2023-09-19T13:44:15;21.60;99.90
38359;DHT22;42072;48.044;14.416;2023-09-19T13:46:44;21.60;99.90
38359;DHT22;42072;48.044;14.416;2023-09-19T13:49:14;21.70;99.90
38359;DHT22;42072;48.044;14.416;2023-09-19T13:51:41;21.80;99.90
38359;DHT22;42072;48.044;14.416;2023-09-19T13:54:11;21.80;98.50
38359;DHT22;42072;48.044;14.416;2023-09-19T13:56:39;21.80;99.90
38359;DHT22;42072;48.044;14.416;2023-09-19T13:59:07;22.00;94.10
38359;DHT22;42072;48.044;14.416;2023-09-19T14:01:35;22.40;72.80
38359;DHT22;42072;48.044;14.416;2023-09-19T14:04:02;22.50;73.70
38359;DHT22;42072;48.044;14.416;2023-09-19T14:06:30;22.80;37.00
38359;DHT22;42072;48.044;14.416;2023-09-19T14:08:57;23.00;23.10
38359;DHT22;42072;48.044;14.416;2023-09-19T14:11:24;23.00;8.30
38359;DHT22;42072;48.044;14.416;2023-09-19T14:13:51;23.00;17.50
38359;DHT22;42072;48.044;14.416;2023-09-19T14:16:22;23.30;30.50
38359;DHT22;42072;48.044;14.416;2023-09-19T14:18:51;23.80;4.50
38359;DHT22;42072;48.044;14.416;2023-09-19T14:21:19;23.80;1.00
38359;DHT22;42072;48.044;14.416;2023-09-19T14:23:47;22.80;1.00
38359;DHT22;42072;48.044;14.416;2023-09-19T14:26:16;22.10;1.00
38359;DHT22;42072;48.044;14.416;2023-09-19T14:28:44;22.00;1.00
38359;DHT22;42072;48.044;14.416;2023-09-19T14:31:12;21.60;1.00
38359;DHT22;42072;48.044;14.416;2023-09-19T14:33:39;21.30;1.00
38359;DHT22;42072;48.044;14.416;2023-09-19T14:36:09;21.10;19.90
38359;DHT22;42072;48.044;14.416;2023-09-19T14:38:38;20.80;22.80
38359;DHT22;42072;48.044;14.416;2023-09-19T14:41:06;20.60;42.50
38359;DHT22;42072;48.044;14.416;2023-09-19T14:43:34;20.50;33.20
38359;DHT22;42072;48.044;14.416;2023-09-19T14:46:05;20.30;40.00
38359;DHT22;42072;48.044;14.416;2023-09-19T14:48:38;20.00;78.60
38359;DHT22;42072;48.044;14.416;2023-09-19T14:51:07;19.90;92.40
38359;DHT22;42072;48.044;14.416;2023-09-19T14:53:40;20.00;97.60
38359;DHT22;42072;48.044;14.416;2023-09-19T14:56:09;20.00;99.90
38359;DHT22;42072;48.044;14.416;2023-09-19T14:58:37;20.00;99.30
38359;DHT22;42072;48.044;14.416;2023-09-19T15:01:12;20.00;99.90
38359;DHT22;42072;48.044;14.416;2023-09-19T15:03:41;20.10;96.40
38359;DHT22;42072;48.044;14.416;2023-09-19T15:06:14;20.00;99.90
38359;DHT22;42072;48.044;14.416;2023-09-19T15:08:42;20.00;99.90
38359;DHT22;42072;48.044;14.416;2023-09-19T15:11:16;20.00;86.30
38359;DHT22;42072;48.044;14.416;2023-09-19T15:13:46;20.00;94.40
38359;DHT22;42072;48.044;14.416;2023-09-19T15:16:14;19.90;99.50
38359;DHT22;42072;48.044;14.416;2023-09-19T15:18:42;19.90;82.20
38359;DHT22;42072;48.044;14.416;2023-09-19T15:21:11;19.80;85.90
38359;DHT22;42072;48.044;14.416;2023-09-19T15:23:41;19.90;90.30
38359;DHT22;42072;48.044;14.416;2023-09-19T15:26:11;20.00;80.30
38359;DHT22;42072;48.044;14.416;2023-09-19T15:28:39;20.20;69.40
38359;DHT22;42072;48.044;14.416;2023-09-19T15:31:09;20.30;59.50
38359;DHT22;42072;48.044;14.416;2023-09-19T15:33:37;20.60;46.60
38359;DHT22;42072;48.044;14.416;2023-09-19T15:36:09;20.60;38.10
38359;DHT22;42072;48.044;14.416;2023-09-19T15:41:32;20.60;19.00
38359;DHT22;42072;48.044;14.416;2023-09-19T15:44:00;20.50;29.10
38359;DHT22;42072;48.044;14.416;2023-09-19T15:46:30;20.40;22.40
38359;DHT22;42072;48.044;14.416;2023-09-19T15:48:58;20.30;25.40
38359;DHT22;42072;48.044;14.416;2023-09-19T15:51:25;20.20;21.60
38359;DHT22;42072;48.044;14.416;2023-09-19T15:53:54;20.10;62.00
38359;DHT22;42072;48.044;14.416;2023-09-19T15:56:24;20.00;84.80
38359;DHT22;42072;48.044;14.416;2023-09-19T15:58:53;19.90;73.10
38359;DHT22;42072;48.044;14.416;2023-09-19T16:01:23;19.80;72.70
38359;DHT22;42072;48.044;14.416;2023-09-19T16:03:53;19.70;78.30
38359;DHT22;42072;48.044;14.416;2023-09-19T16:06:25;19.50;76.00
38359;DHT22;42072;48.044;14.416;2023-09-19T16:08:55;19.40;61.50
38359;DHT22;42072;48.044;14.416;2023-09-19T16:11:23;19.30;46.20
38359;DHT22;42072;48.044;14.416;2023-09-19T16:13:52;19.10;40.50
38359;DHT22;42072;48.044;14.416;2023-09-19T16:16:23;19.10;32.80
38359;DHT22;42072;48.044;14.416;2023-09-19T16:18:55;19.00;53.50
38359;DHT22;42072;48.044;14.416;2023-09-19T16:21:30;19.00;69.10
38359;DHT22;42072;48.044;14.416;2023-09-19T16:23:59;18.90;78.30
38359;DHT22;42072;48.044;14.416;2023-09-19T16:26:28;18.90;94.90
38359;DHT22;42072;48.044;14.416;2023-09-19T16:28:58;18.80;99.10
38359;DHT22;42072;48.044;14.416;2023-09-19T16:31:30;18.70;94.80
38359;DHT22;42072;48.044;14.416;2023-09-19T16:34:03;18.70;99.90